sensor_id;sensor_type;location;lat;lon;timestamp;pressure;altitude;pressure_sealevel;temperature;humidity
78483;BME280;67772;50.158;8.658;2023-02-12T14:35:42;102511.25;;;19.13;43.98
78483;BME280;67772;50.158;8.658;2023-02-12T14:49:43;102528.59;;;12.89;55.11
78483;BME280;67772;50.158;8.658;2023-02-12T14:57:37;102535.13;;;11.19;61.13
78483;BME280;67772;50.158;8.658;2023-02-12T15:02:41;102541.03;;;11.08;61.94
78483;BME280;67772;50.158;8.658;2023-02-12T15:05:29;102542.59;;;10.75;62.90
78483;BME280;67772;50.158;8.658;2023-02-12T15:08:02;102541.13;;;10.51;63.51
78483;BME280;67772;50.158;8.658;2023-02-12T15:10:39;102544.59;;;10.51;63.91
78483;BME280;67772;50.158;8.658;2023-02-12T15:15:47;102533.28;;;10.49;64.61
78483;BME280;67772;50.158;8.658;2023-02-12T15:18:21;102545.75;;;10.42;64.80
78483;BME280;67772;50.158;8.658;2023-02-12T15:20:58;102531.25;;;10.30;65.28
78483;BME280;67772;50.158;8.658;2023-02-12T15:23:33;102536.75;;;10.43;64.25
78483;BME280;67772;50.158;8.658;2023-02-12T15:25:59;102536.16;;;10.27;64.63
78483;BME280;67772;50.158;8.658;2023-02-12T15:28:29;102531.88;;;10.11;65.75
78483;BME280;67772;50.158;8.658;2023-02-12T15:31:01;102539.84;;;9.97;66.37
78483;BME280;67772;50.158;8.658;2023-02-12T15:33:33;102540.69;;;9.97;66.60
78483;BME280;67772;50.158;8.658;2023-02-12T15:36:01;102532.78;;;9.89;66.73
78483;BME280;67772;50.158;8.658;2023-02-12T15:38:36;102528.00;;;9.99;66.71
78483;BME280;67772;50.158;8.658;2023-02-12T15:41:04;102542.72;;;9.95;66.81
78483;BME280;67772;50.158;8.658;2023-02-12T15:43:32;102531.41;;;9.93;66.81
78483;BME280;67772;50.158;8.658;2023-02-12T15:46:03;102536.84;;;9.85;67.74
78483;BME280;67772;50.158;8.658;2023-02-12T15:48:31;102537.88;;;9.84;67.57
78483;BME280;67772;50.158;8.658;2023-02-12T15:51:21;102543.69;;;9.73;67.75
78483;BME280;67772;50.158;8.658;2023-02-12T15:53:49;102538.34;;;9.73;68.19
78483;BME280;67772;50.158;8.658;2023-02-12T15:56:18;102542.00;;;9.72;68.49
78483;BME280;67772;50.158;8.658;2023-02-12T16:01:19;102531.53;;;9.56;69.21
78483;BME280;67772;50.158;8.658;2023-02-12T16:03:51;102520.53;;;9.59;69.30
78483;BME280;67772;50.158;8.658;2023-02-12T16:06:19;102515.47;;;9.49;69.48
78483;BME280;67772;50.158;8.658;2023-02-12T16:08:47;102517.41;;;9.41;69.37
78483;BME280;67772;50.158;8.658;2023-02-12T16:11:19;102515.28;;;9.51;69.19
78483;BME280;67772;50.158;8.658;2023-02-12T16:13:54;102508.75;;;9.39;69.80
78483;BME280;67772;50.158;8.658;2023-02-12T16:16:27;102523.19;;;9.44;69.45
78483;BME280;67772;50.158;8.658;2023-02-12T16:21:35;102524.91;;;9.23;70.60
78483;BME280;67772;50.158;8.658;2023-02-12T16:24:02;102521.59;;;9.21;70.89
78483;BME280;67772;50.158;8.658;2023-02-12T16:26:28;102515.66;;;9.33;70.47
78483;BME280;67772;50.158;8.658;2023-02-12T16:28:55;102508.94;;;9.23;71.02
78483;BME280;67772;50.158;8.658;2023-02-12T16:31:23;102517.56;;;9.25;70.70
78483;BME280;67772;50.158;8.658;2023-02-12T16:33:54;102515.34;;;9.28;71.23
78483;BME280;67772;50.158;8.658;2023-02-12T16:38:48;102525.44;;;9.04;72.00
78483;BME280;67772;50.158;8.658;2023-02-12T16:43:41;102522.84;;;8.96;71.64
78483;BME280;67772;50.158;8.658;2023-02-12T16:46:07;102529.84;;;8.97;72.21
78483;BME280;67772;50.158;8.658;2023-02-12T16:48:39;102531.47;;;8.98;72.20
78483;BME280;67772;50.158;8.658;2023-02-12T16:51:05;102526.88;;;8.91;72.48
78483;BME280;67772;50.158;8.658;2023-02-12T16:55:56;102537.50;;;8.91;72.89
78483;BME280;67772;50.158;8.658;2023-02-12T16:58:22;102530.06;;;8.87;73.03
78483;BME280;67772;50.158;8.658;2023-02-12T17:00:47;102530.91;;;8.87;72.45
78483;BME280;67772;50.158;8.658;2023-02-12T17:03:13;102532.91;;;8.85;72.92
78483;BME280;67772;50.158;8.658;2023-02-12T17:05:40;102534.19;;;8.89;73.02
78483;BME280;67772;50.158;8.658;2023-02-12T17:08:21;102543.94;;;8.82;72.59
78483;BME280;67772;50.158;8.658;2023-02-12T17:10:46;102548.94;;;8.77;73.08
78483;BME280;67772;50.158;8.658;2023-02-12T17:13:13;102544.63;;;8.76;73.58
78483;BME280;67772;50.158;8.658;2023-02-12T17:18:07;102545.34;;;8.70;73.22
78483;BME280;67772;50.158;8.658;2023-02-12T17:20:35;102549.38;;;8.66;74.13
78483;BME280;67772;50.158;8.658;2023-02-12T17:23:00;102550.22;;;8.67;73.57
78483;BME280;67772;50.158;8.658;2023-02-12T17:25:26;102554.44;;;8.76;73.91
78483;BME280;67772;50.158;8.658;2023-02-12T17:27:54;102554.63;;;8.74;73.40
78483;BME280;67772;50.158;8.658;2023-02-12T17:30:19;102560.94;;;8.73;74.14
78483;BME280;67772;50.158;8.658;2023-02-12T17:32:45;102566.63;;;8.70;73.69
78483;BME280;67772;50.158;8.658;2023-02-12T17:35:11;102564.81;;;8.71;73.87
78483;BME280;67772;50.158;8.658;2023-02-12T17:37:36;102559.31;;;8.72;73.78
78483;BME280;67772;50.158;8.658;2023-02-12T17:40:02;102568.28;;;8.71;74.22
78483;BME280;67772;50.158;8.658;2023-02-12T17:42:28;102571.25;;;8.76;73.98
78483;BME280;67772;50.158;8.658;2023-02-12T17:44:53;102567.94;;;8.74;73.98
78483;BME280;67772;50.158;8.658;2023-02-12T17:47:19;102567.41;;;8.79;73.22
78483;BME280;67772;50.158;8.658;2023-02-12T17:49:44;102568.59;;;8.76;74.09
78483;BME280;67772;50.158;8.658;2023-02-12T17:52:09;102562.81;;;8.73;73.45
78483;BME280;67772;50.158;8.658;2023-02-12T17:54:35;102570.38;;;8.61;74.35
78483;BME280;67772;50.158;8.658;2023-02-12T17:57:00;102573.38;;;8.58;74.90
78483;BME280;67772;50.158;8.658;2023-02-12T17:59:25;102572.84;;;8.63;74.78
78483;BME280;67772;50.158;8.658;2023-02-12T18:01:51;102571.34;;;8.60;74.55
78483;BME280;67772;50.158;8.658;2023-02-12T18:04:16;102573.38;;;8.58;74.65
78483;BME280;67772;50.158;8.658;2023-02-12T18:06:41;102570.41;;;8.53;74.78
78483;BME280;67772;50.158;8.658;2023-02-12T18:09:07;102569.75;;;8.51;75.68
78483;BME280;67772;50.158;8.658;2023-02-12T18:11:32;102567.25;;;8.50;75.23
78483;BME280;67772;50.158;8.658;2023-02-12T18:13:58;102573.22;;;8.52;75.62
78483;BME280;67772;50.158;8.658;2023-02-12T18:16:25;102578.69;;;8.58;75.23
78483;BME280;67772;50.158;8.658;2023-02-12T18:18:52;102575.19;;;8.58;75.43
78483;BME280;67772;50.158;8.658;2023-02-12T18:21:17;102577.84;;;8.58;75.11
78483;BME280;67772;50.158;8.658;2023-02-12T18:23:43;102574.53;;;8.56;75.62
78483;BME280;67772;50.158;8.658;2023-02-12T18:26:15;102580.00;;;8.62;74.93
78483;BME280;67772;50.158;8.658;2023-02-12T18:28:40;102573.72;;;8.55;74.75
78483;BME280;67772;50.158;8.658;2023-02-12T18:31:07;102579.06;;;8.55;74.85
78483;BME280;67772;50.158;8.658;2023-02-12T18:33:33;102580.69;;;8.56;75.83
78483;BME280;67772;50.158;8.658;2023-02-12T18:36:08;102579.19;;;8.54;75.16
78483;BME280;67772;50.158;8.658;2023-02-12T18:38:35;102574.19;;;8.59;74.85
78483;BME280;67772;50.158;8.658;2023-02-12T18:41:08;102584.00;;;8.58;74.75
78483;BME280;67772;50.158;8.658;2023-02-12T18:43:33;102577.75;;;8.51;75.73
78483;BME280;67772;50.158;8.658;2023-02-12T18:46:07;102578.25;;;8.47;75.68
78483;BME280;67772;50.158;8.658;2023-02-12T18:48:33;102576.78;;;8.44;76.06
78483;BME280;67772;50.158;8.658;2023-02-12T18:51:02;102582.41;;;8.49;76.13
78483;BME280;67772;50.158;8.658;2023-02-12T18:53:29;102579.28;;;8.46;75.94
78483;BME280;67772;50.158;8.658;2023-02-12T18:55:54;102585.53;;;8.53;75.67
78483;BME280;67772;50.158;8.658;2023-02-12T18:58:19;102573.38;;;8.58;75.63
78483;BME280;67772;50.158;8.658;2023-02-12T19:00:44;102580.00;;;8.62;75.53
78483;BME280;67772;50.158;8.658;2023-02-12T19:03:10;102584.72;;;8.52;75.90
78483;BME280;67772;50.158;8.658;2023-02-12T19:05:35;102582.09;;;8.44;75.64
78483;BME280;67772;50.158;8.658;2023-02-12T19:08:01;102572.66;;;8.42;75.29
78483;BME280;67772;50.158;8.658;2023-02-12T19:10:27;102574.78;;;8.46;75.37
78483;BME280;67772;50.158;8.658;2023-02-12T19:12:53;102572.16;;;8.38;75.67
78483;BME280;67772;50.158;8.658;2023-02-12T19:15:19;102571.81;;;8.41;75.64
78483;BME280;67772;50.158;8.658;2023-02-12T19:17:44;102568.69;;;8.38;75.79
78483;BME280;67772;50.158;8.658;2023-02-12T19:20:10;102574.53;;;8.33;76.01
78483;BME280;67772;50.158;8.658;2023-02-12T19:22:37;102578.16;;;8.32;75.99
78483;BME280;67772;50.158;8.658;2023-02-12T19:25:04;102575.19;;;8.35;75.85
78483;BME280;67772;50.158;8.658;2023-02-12T19:27:29;102579.38;;;8.30;75.76
78483;BME280;67772;50.158;8.658;2023-02-12T19:29:55;102582.13;;;8.36;76.51
78483;BME280;67772;50.158;8.658;2023-02-12T19:32:21;102577.38;;;8.32;75.65
78483;BME280;67772;50.158;8.658;2023-02-12T19:34:46;102572.75;;;8.48;75.15
78483;BME280;67772;50.158;8.658;2023-02-12T19:37:11;102575.13;;;8.43;75.35
78483;BME280;67772;50.158;8.658;2023-02-12T19:39:38;102584.00;;;8.36;75.91
78483;BME280;67772;50.158;8.658;2023-02-12T19:42:03;102592.63;;;8.38;75.35
78483;BME280;67772;50.158;8.658;2023-02-12T19:44:29;102587.16;;;8.31;75.63
78483;BME280;67772;50.158;8.658;2023-02-12T19:46:54;102585.78;;;8.43;75.90
78483;BME280;67772;50.158;8.658;2023-02-12T19:49:22;102586.81;;;8.34;76.41
78483;BME280;67772;50.158;8.658;2023-02-12T19:51:48;102576.16;;;8.34;75.19
78483;BME280;67772;50.158;8.658;2023-02-12T19:54:15;102585.16;;;8.33;75.66
78483;BME280;67772;50.158;8.658;2023-02-12T19:56:41;102587.50;;;8.28;76.15
78483;BME280;67772;50.158;8.658;2023-02-12T19:59:07;102580.13;;;8.38;75.72
78483;BME280;67772;50.158;8.658;2023-02-12T20:01:33;102579.47;;;8.36;75.92
78483;BME280;67772;50.158;8.658;2023-02-12T20:03:59;102581.06;;;8.53;74.46
78483;BME280;67772;50.158;8.658;2023-02-12T20:06:28;102575.03;;;8.59;74.38
78483;BME280;67772;50.158;8.658;2023-02-12T20:08:54;102577.75;;;8.51;75.00
78483;BME280;67772;50.158;8.658;2023-02-12T20:11:22;102574.94;;;8.45;74.57
78483;BME280;67772;50.158;8.658;2023-02-12T20:13:49;102572.47;;;8.43;75.05
78483;BME280;67772;50.158;8.658;2023-02-12T20:16:18;102573.13;;;8.45;75.38
78483;BME280;67772;50.158;8.658;2023-02-12T20:18:45;102570.66;;;8.44;74.68
78483;BME280;67772;50.158;8.658;2023-02-12T20:21:14;102572.53;;;8.35;75.95
78483;BME280;67772;50.158;8.658;2023-02-12T20:23:40;102574.28;;;8.43;75.30
78483;BME280;67772;50.158;8.658;2023-02-12T20:26:07;102580.44;;;8.43;75.50
78483;BME280;67772;50.158;8.658;2023-02-12T20:28:34;102580.34;;;8.29;75.71
78483;BME280;67772;50.158;8.658;2023-02-12T20:31:07;102585.34;;;8.24;75.64
78483;BME280;67772;50.158;8.658;2023-02-12T20:33:32;102589.53;;;8.18;76.22
78483;BME280;67772;50.158;8.658;2023-02-12T20:35:57;102587.53;;;8.20;76.25
78483;BME280;67772;50.158;8.658;2023-02-12T20:38:23;102595.38;;;8.14;76.63
78483;BME280;67772;50.158;8.658;2023-02-12T20:40:48;102595.38;;;8.14;75.87
78483;BME280;67772;50.158;8.658;2023-02-12T20:43:13;102592.88;;;8.12;76.22
78483;BME280;67772;50.158;8.658;2023-02-12T20:45:38;102591.25;;;8.03;76.31
78483;BME280;67772;50.158;8.658;2023-02-12T20:48:04;102591.91;;;8.05;76.48
78483;BME280;67772;50.158;8.658;2023-02-12T20:50:29;102590.19;;;8.20;76.61
78483;BME280;67772;50.158;8.658;2023-02-12T20:52:54;102602.97;;;8.25;75.40
78483;BME280;67772;50.158;8.658;2023-02-12T20:55:20;102601.63;;;8.21;76.27
78483;BME280;67772;50.158;8.658;2023-02-12T20:57:45;102607.47;;;8.24;76.21
78483;BME280;67772;50.158;8.658;2023-02-12T21:00:13;102604.13;;;8.22;76.25
78483;BME280;67772;50.158;8.658;2023-02-12T21:02:39;102603.63;;;8.27;75.74
78483;BME280;67772;50.158;8.658;2023-02-12T21:05:04;102609.47;;;8.22;76.38
78483;BME280;67772;50.158;8.658;2023-02-12T21:07:30;102607.16;;;8.11;76.16
78483;BME280;67772;50.158;8.658;2023-02-12T21:09:55;102603.38;;;8.05;76.54
78483;BME280;67772;50.158;8.658;2023-02-12T21:12:20;102610.19;;;8.08;76.68
78483;BME280;67772;50.158;8.658;2023-02-12T21:14:46;102609.53;;;8.06;76.85
78483;BME280;67772;50.158;8.658;2023-02-12T21:17:11;102610.19;;;8.08;77.09
78483;BME280;67772;50.158;8.658;2023-02-12T21:19:36;102615.81;;;8.05;76.25
78483;BME280;67772;50.158;8.658;2023-02-12T21:22:02;102618.84;;;8.02;77.08
78483;BME280;67772;50.158;8.658;2023-02-12T21:24:27;102616.50;;;7.99;76.80
78483;BME280;67772;50.158;8.658;2023-02-12T21:26:53;102622.78;;;8.14;77.13
78483;BME280;67772;50.158;8.658;2023-02-12T21:29:20;102620.78;;;8.16;76.90
78483;BME280;67772;50.158;8.658;2023-02-12T21:31:47;102621.50;;;8.02;77.08
78483;BME280;67772;50.158;8.658;2023-02-12T21:34:15;102620.16;;;8.06;76.55
78483;BME280;67772;50.158;8.658;2023-02-12T21:36:42;102632.31;;;8.00;77.13
78483;BME280;67772;50.158;8.658;2023-02-12T21:39:11;102631.78;;;8.05;76.44
78483;BME280;67772;50.158;8.658;2023-02-12T21:41:38;102630.31;;;8.02;76.85
78483;BME280;67772;50.158;8.658;2023-02-12T21:44:07;102631.47;;;8.00;77.15
78483;BME280;67772;50.158;8.658;2023-02-12T21:46:34;102633.13;;;8.01;76.92
78483;BME280;67772;50.158;8.658;2023-02-12T21:49:00;102631.13;;;8.03;77.04
78483;BME280;67772;50.158;8.658;2023-02-12T21:53:59;102630.47;;;7.93;76.95
78483;BME280;67772;50.158;8.658;2023-02-12T21:56:25;102629.19;;;7.89;78.09
78483;BME280;67772;50.158;8.658;2023-02-12T21:58:52;102638.16;;;7.88;78.07
78483;BME280;67772;50.158;8.658;2023-02-12T22:01:20;102635.78;;;7.93;77.03
78483;BME280;67772;50.158;8.658;2023-02-12T22:03:46;102639.31;;;7.85;77.74
78483;BME280;67772;50.158;8.658;2023-02-12T22:06:13;102634.53;;;7.81;78.56
78483;BME280;67772;50.158;8.658;2023-02-12T22:08:39;102635.19;;;7.83;77.55
78483;BME280;67772;50.158;8.658;2023-02-12T22:11:07;102630.19;;;7.80;78.13
78483;BME280;67772;50.158;8.658;2023-02-12T22:13:33;102626.41;;;7.74;78.17
78483;BME280;67772;50.158;8.658;2023-02-12T22:16:15;102635.19;;;7.75;78.45
78483;BME280;67772;50.158;8.658;2023-02-12T22:18:41;102635.88;;;7.77;78.60
78483;BME280;67772;50.158;8.658;2023-02-12T22:21:09;102625.72;;;7.72;77.87
78483;BME280;67772;50.158;8.658;2023-02-12T22:23:35;102627.56;;;7.72;78.06
78483;BME280;67772;50.158;8.658;2023-02-12T22:28:38;102628.03;;;7.75;77.71
78483;BME280;67772;50.158;8.658;2023-02-12T22:31:05;102628.03;;;7.75;77.65
78483;BME280;67772;50.158;8.658;2023-02-12T22:33:30;102624.41;;;7.76;77.64
78483;BME280;67772;50.158;8.658;2023-02-12T22:36:03;102624.88;;;7.80;77.92
78483;BME280;67772;50.158;8.658;2023-02-12T22:38:28;102620.59;;;7.71;78.35
78483;BME280;67772;50.158;8.658;2023-02-12T22:40:54;102634.53;;;7.73;78.35
78483;BME280;67772;50.158;8.658;2023-02-12T22:43:19;102632.06;;;7.71;78.26
78483;BME280;67772;50.158;8.658;2023-02-12T22:45:44;102632.53;;;7.75;77.89
78483;BME280;67772;50.158;8.658;2023-02-12T22:48:10;102650.94;;;7.84;77.36
78483;BME280;67772;50.158;8.658;2023-02-12T22:50:37;102643.00;;;7.68;78.94
78483;BME280;67772;50.158;8.658;2023-02-12T22:53:03;102643.69;;;7.62;78.91
78483;BME280;67772;50.158;8.658;2023-02-12T22:55:28;102644.16;;;7.66;78.39
78483;BME280;67772;50.158;8.658;2023-02-12T22:57:53;102642.69;;;7.71;77.92
78483;BME280;67772;50.158;8.658;2023-02-12T23:00:19;102641.19;;;7.77;78.47
78483;BME280;67772;50.158;8.658;2023-02-12T23:02:44;102641.66;;;7.72;78.32
78483;BME280;67772;50.158;8.658;2023-02-12T23:05:09;102649.47;;;7.66;78.46
78483;BME280;67772;50.158;8.658;2023-02-12T23:07:35;102644.16;;;7.66;78.76
78483;BME280;67772;50.158;8.658;2023-02-12T23:10:00;102644.69;;;7.69;78.65
78483;BME280;67772;50.158;8.658;2023-02-12T23:12:25;102649.00;;;7.62;78.22
78483;BME280;67772;50.158;8.658;2023-02-12T23:14:50;102654.97;;;7.56;78.85
78483;BME280;67772;50.158;8.658;2023-02-12T23:17:16;102656.31;;;7.52;78.47
78483;BME280;67772;50.158;8.658;2023-02-12T23:19:41;102642.88;;;7.46;77.82
78483;BME280;67772;50.158;8.658;2023-02-12T23:22:06;102649.66;;;7.48;78.13
78483;BME280;67772;50.158;8.658;2023-02-12T23:24:32;102644.88;;;7.44;78.15
78483;BME280;67772;50.158;8.658;2023-02-12T23:26:57;102645.03;;;7.50;77.85
78483;BME280;67772;50.158;8.658;2023-02-12T23:29:22;102639.72;;;7.50;76.94
78483;BME280;67772;50.158;8.658;2023-02-12T23:31:48;102644.84;;;7.60;77.27
78483;BME280;67772;50.158;8.658;2023-02-12T23:34:13;102640.72;;;7.57;76.70
78483;BME280;67772;50.158;8.658;2023-02-12T23:36:38;102641.19;;;7.61;75.83
78483;BME280;67772;50.158;8.658;2023-02-12T23:39:04;102635.41;;;7.57;76.47
78483;BME280;67772;50.158;8.658;2023-02-12T23:41:30;102634.72;;;7.63;75.90
78483;BME280;67772;50.158;8.658;2023-02-12T23:43:55;102634.53;;;7.73;75.81
78483;BME280;67772;50.158;8.658;2023-02-12T23:46:20;102632.88;;;7.72;75.29
78483;BME280;67772;50.158;8.658;2023-02-12T23:48:45;102626.56;;;7.81;75.25
78483;BME280;67772;50.158;8.658;2023-02-12T23:51:11;102630.38;;;7.78;75.88
78483;BME280;67772;50.158;8.658;2023-02-12T23:53:36;102628.38;;;7.80;75.45
78483;BME280;67772;50.158;8.658;2023-02-12T23:56:01;102634.81;;;7.86;75.15
78483;BME280;67772;50.158;8.658;2023-02-12T23:58:27;102631.88;;;7.81;75.13
